Anton, Colorado
Current Conditions -  °F | °C
As of 8:53 AM on Thursday 18 Dec 2014 (Local Time) from KAKO Reporting Station
Haze Haze  
Wind Chill:   Ceiling: Unl
Heat Index: 21°   Visibility: 4mi
Dew Point: 19°   Wind: 12mph
Humidity: 92%   Direction: 260°W
Pressure: 30.04"   Gusts: NA
Location:  39.74°N, 103.22°W
Report Text: KAKO 181553Z AUTO 26010KT 4SM BR CLR M06/M07 A3004 RMK AO2 SLP221 T10611072
Loading
Personal Weather Stations






























Interactive Weather Map New forecast layout! Learn more

10-Day Weather Forecast

Advertisements
Track Severe Weather on mobile